createdAt,value
2024-03-04T00:00:02.338Z,100
2024-03-04T00:01:02.587Z,100
2024-03-04T00:02:02.309Z,100
2024-03-04T00:03:02.810Z,100
2024-03-04T00:04:01.709Z,100
2024-03-04T00:05:01.670Z,100
2024-03-04T00:06:02.526Z,100
2024-03-04T00:07:02.354Z,100
2024-03-04T00:08:02.149Z,100
2024-03-04T00:09:01.980Z,100
2024-03-04T00:10:01.885Z,100
2024-03-04T00:11:02.384Z,100
2024-03-04T00:12:02.577Z,100
2024-03-04T00:13:02.109Z,100
2024-03-04T00:14:02.012Z,100
2024-03-04T00:15:02.436Z,100
2024-03-04T00:16:02.480Z,100
2024-03-04T00:17:02.048Z,100
2024-03-04T00:18:02.029Z,100
2024-03-04T00:19:01.853Z,100
2024-03-04T00:20:01.756Z,100
2024-03-04T00:21:01.570Z,100
2024-03-04T00:22:02.544Z,100
2024-03-04T00:23:02.236Z,100
2024-03-04T00:24:01.956Z,100
2024-03-04T00:25:01.961Z,100
2024-03-04T00:26:02.172Z,100
2024-03-04T00:27:02.207Z,100
2024-03-04T00:28:01.876Z,100
2024-03-04T00:29:01.914Z,100
2024-03-04T00:30:01.650Z,100
2024-03-04T00:31:01.866Z,100
2024-03-04T00:32:01.991Z,100
2024-03-04T00:33:02.032Z,100
2024-03-04T00:34:02.298Z,100
2024-03-04T00:35:02.399Z,100
2024-03-04T00:36:02.024Z,100
2024-03-04T00:37:02.186Z,100
2024-03-04T00:38:01.861Z,100
2024-03-04T00:39:01.960Z,100
2024-03-04T00:40:01.668Z,100
2024-03-04T00:41:01.677Z,100
2024-03-04T00:42:03.002Z,100
2024-03-04T00:43:01.743Z,100
2024-03-04T00:44:02.659Z,100
2024-03-04T00:45:01.378Z,100
2024-03-04T00:46:02.348Z,100
2024-03-04T00:48:02.543Z,100
2024-03-04T00:49:02.407Z,100
2024-03-04T00:50:02.273Z,100
2024-03-04T00:51:02.330Z,100
2024-03-04T00:52:02.046Z,100
2024-03-04T00:53:02.650Z,100
2024-03-04T00:54:02.347Z,100
2024-03-04T00:55:03.065Z,100
2024-03-04T00:56:01.772Z,100
2024-03-04T00:57:01.899Z,100
2024-03-04T00:58:01.651Z,100
2024-03-04T00:59:01.779Z,100
2024-03-04T01:00:03.185Z,100
2024-03-04T01:01:02.261Z,100
2024-03-04T01:02:02.368Z,100
2024-03-04T01:03:02.647Z,100
2024-03-04T01:04:02.569Z,100
2024-03-04T01:05:02.419Z,100
2024-03-04T01:06:02.420Z,100
2024-03-04T01:07:02.296Z,100
2024-03-04T01:08:02.232Z,100
2024-03-04T01:09:02.062Z,100
2024-03-04T01:10:01.830Z,100
2024-03-04T01:11:01.804Z,100
2024-03-04T01:12:01.769Z,100
2024-03-04T01:13:01.681Z,100
2024-03-04T01:14:02.900Z,100
2024-03-04T01:15:01.574Z,100
2024-03-04T01:16:02.656Z,100
2024-03-04T01:18:02.533Z,100
2024-03-04T01:19:02.418Z,100
2024-03-04T01:20:02.180Z,100
2024-03-04T01:21:02.574Z,100
2024-03-04T01:22:02.314Z,100
2024-03-04T01:23:02.327Z,100
2024-03-04T01:24:01.999Z,100
2024-03-04T01:25:02.154Z,100
2024-03-04T01:26:02.259Z,100
2024-03-04T01:27:02.030Z,100
2024-03-04T01:28:01.870Z,100
2024-03-04T01:29:01.923Z,100
2024-03-04T01:30:01.579Z,100
2024-03-04T01:31:02.685Z,100
2024-03-04T01:33:01.870Z,100
2024-03-04T01:34:01.653Z,100
2024-03-04T01:35:01.601Z,100
2024-03-04T01:36:02.536Z,100
2024-03-04T01:37:02.382Z,100
2024-03-04T01:38:02.343Z,100
2024-03-04T01:39:02.685Z,100
2024-03-04T01:40:02.861Z,100
2024-03-04T01:41:01.702Z,100
2024-03-04T01:42:02.861Z,100
2024-03-04T01:43:01.657Z,100
2024-03-04T01:44:03.170Z,100
2024-03-04T01:45:01.840Z,100
2024-03-04T01:46:02.438Z,100
2024-03-04T01:48:01.834Z,100
2024-03-04T01:49:01.706Z,100
2024-03-04T01:50:01.612Z,100
2024-03-04T01:51:03.128Z,100
2024-03-04T01:52:01.857Z,100
2024-03-04T01:53:02.313Z,100
2024-03-04T01:54:02.015Z,100
2024-03-04T01:55:02.179Z,100
2024-03-04T01:56:02.634Z,100
2024-03-04T01:57:02.395Z,100
2024-03-04T01:58:02.195Z,100
2024-03-04T01:59:02.062Z,100
2024-03-04T02:00:02.735Z,100
2024-03-04T02:01:02.091Z,100
2024-03-04T02:03:01.926Z,100
2024-03-04T02:04:01.698Z,100
2024-03-04T02:05:02.110Z,100
2024-03-04T02:06:01.921Z,100
2024-03-04T02:07:02.108Z,100
2024-03-04T02:08:02.422Z,100
2024-03-04T02:09:02.564Z,100
2024-03-04T02:10:02.248Z,100
2024-03-04T02:11:02.317Z,100
2024-03-04T02:12:02.002Z,100
2024-03-04T02:13:02.093Z,100
2024-03-04T02:14:02.220Z,100
2024-03-04T02:15:01.866Z,100
2024-03-04T02:16:02.122Z,100
2024-03-04T02:17:02.094Z,100
2024-03-04T02:18:02.012Z,100
2024-03-04T02:19:02.893Z,100
2024-03-04T02:20:01.591Z,100
2024-03-04T02:21:01.739Z,100
2024-03-04T02:22:02.807Z,100
2024-03-04T02:23:01.614Z,100
2024-03-04T02:24:02.727Z,100
2024-03-04T02:25:02.498Z,100
2024-03-04T02:26:02.297Z,100
2024-03-04T02:27:02.639Z,100
2024-03-04T02:28:02.302Z,100
2024-03-04T02:29:02.428Z,100
2024-03-04T02:30:02.129Z,100
2024-03-04T02:31:03.008Z,100
2024-03-04T02:33:02.536Z,100
2024-03-04T02:34:02.452Z,100
2024-03-04T02:35:02.462Z,100
2024-03-04T02:36:02.072Z,100
2024-03-04T02:37:02.151Z,100
2024-03-04T02:38:01.823Z,100
2024-03-04T02:39:02.300Z,100
2024-03-04T02:40:02.006Z,100
2024-03-04T02:41:01.903Z,100
2024-03-04T02:42:02.050Z,100
2024-03-04T02:43:01.900Z,100
2024-03-04T02:44:01.823Z,100
2024-03-04T02:45:01.630Z,100
2024-03-04T02:46:02.833Z,100
2024-03-04T02:48:02.905Z,100
2024-03-04T02:49:01.700Z,100
2024-03-04T02:50:03.024Z,100
2024-03-04T02:51:01.681Z,100
2024-03-04T02:52:04.474Z,100
2024-03-04T02:53:02.391Z,100
2024-03-04T02:54:02.337Z,100
2024-03-04T02:55:02.031Z,100
2024-03-04T02:56:01.755Z,100
2024-03-04T02:57:01.725Z,100
2024-03-04T02:58:03.060Z,100
2024-03-04T02:59:01.757Z,100
2024-03-04T03:00:03.369Z,100
2024-03-04T03:01:02.362Z,100
2024-03-04T03:02:02.179Z,100
2024-03-04T03:03:02.250Z,100
2024-03-04T03:04:01.945Z,100
2024-03-04T03:05:02.289Z,100
2024-03-04T03:06:02.088Z,100
2024-03-04T03:07:02.251Z,100
2024-03-04T03:08:02.064Z,100
2024-03-04T03:09:01.860Z,100
2024-03-04T03:10:02.778Z,100
2024-03-04T03:11:01.621Z,100
2024-03-04T03:12:02.561Z,100
2024-03-04T03:13:02.394Z,100
2024-03-04T03:14:02.237Z,100
2024-03-04T03:15:02.053Z,100
2024-03-04T03:16:01.863Z,100
2024-03-04T03:17:02.429Z,100
2024-03-04T03:18:02.331Z,100
2024-03-04T03:19:02.634Z,100
2024-03-04T03:20:02.363Z,100
2024-03-04T03:21:02.625Z,100
2024-03-04T03:22:02.363Z,100
2024-03-04T03:23:02.442Z,100
2024-03-04T03:24:02.060Z,100
2024-03-04T03:25:02.342Z,100
2024-03-04T03:26:02.757Z,100
2024-03-04T03:27:02.435Z,100
2024-03-04T03:28:02.691Z,100
2024-03-04T03:29:01.704Z,100
2024-03-04T03:30:02.589Z,100
2024-03-04T03:31:02.490Z,100
2024-03-04T03:33:02.425Z,100
2024-03-04T03:34:02.427Z,100
2024-03-04T03:35:02.344Z,100
2024-03-04T03:36:01.956Z,100
2024-03-04T03:37:02.305Z,100
2024-03-04T03:38:02.244Z,100
2024-03-04T03:39:02.007Z,100
2024-03-04T03:40:02.393Z,100
2024-03-04T03:41:02.370Z,100
2024-03-04T03:42:01.999Z,100
2024-03-04T03:43:02.237Z,100
2024-03-04T03:44:01.916Z,100
2024-03-04T03:45:02.653Z,100
2024-03-04T03:46:02.974Z,100
2024-03-04T03:48:02.143Z,100
2024-03-04T03:49:02.021Z,100
2024-03-04T03:50:01.934Z,100
2024-03-04T03:51:02.096Z,100
2024-03-04T03:52:01.779Z,100
2024-03-04T03:53:01.905Z,100
2024-03-04T03:54:01.561Z,100
2024-03-04T03:55:01.794Z,100
2024-03-04T03:56:01.553Z,100
2024-03-04T03:57:01.705Z,100
2024-03-04T03:58:02.605Z,100
2024-03-04T03:59:02.434Z,100
2024-03-04T04:00:03.158Z,100
2024-03-04T04:01:02.079Z,100
2024-03-04T04:02:02.222Z,100
2024-03-04T04:03:02.424Z,100
2024-03-04T04:04:02.157Z,100
2024-03-04T04:05:02.332Z,100
2024-03-04T04:06:01.982Z,100
2024-03-04T04:07:02.134Z,100
2024-03-04T04:08:02.568Z,100
2024-03-04T04:09:02.391Z,100
2024-03-04T04:10:02.572Z,100
2024-03-04T04:11:02.341Z,100
2024-03-04T04:12:02.250Z,100
2024-03-04T04:13:02.127Z,100
2024-03-04T04:14:02.453Z,100
2024-03-04T04:15:02.325Z,100
2024-03-04T04:16:02.041Z,100
2024-03-04T04:17:02.106Z,100
2024-03-04T04:18:02.083Z,100
2024-03-04T04:19:01.857Z,100
2024-03-04T04:20:02.260Z,100
2024-03-04T04:21:01.938Z,100
2024-03-04T04:22:02.142Z,100
2024-03-04T04:23:02.735Z,100
2024-03-04T04:24:02.415Z,100
2024-03-04T04:25:02.906Z,100
2024-03-04T04:26:02.157Z,100
2024-03-04T04:27:02.629Z,100
2024-03-04T04:28:02.363Z,100
2024-03-04T04:29:02.781Z,100
2024-03-04T04:30:02.528Z,100
2024-03-04T04:31:01.710Z,100
2024-03-04T04:32:01.591Z,100
2024-03-04T04:33:01.949Z,100
2024-03-04T04:34:01.761Z,100
2024-03-04T04:35:02.161Z,100
2024-03-04T04:36:01.868Z,100
2024-03-04T04:37:02.147Z,100
2024-03-04T04:38:01.862Z,100
2024-03-04T04:39:01.979Z,100
2024-03-04T04:40:01.878Z,100
2024-03-04T04:41:02.155Z,100
2024-03-04T04:42:01.846Z,100
2024-03-04T04:43:02.091Z,100
2024-03-04T04:44:01.900Z,100
2024-03-04T04:45:02.308Z,100
2024-03-04T04:46:02.095Z,100
2024-03-04T04:47:02.433Z,100
2024-03-04T04:48:02.299Z,100
2024-03-04T04:49:02.236Z,100
2024-03-04T04:50:01.929Z,100
2024-03-04T04:51:02.572Z,100
2024-03-04T04:52:02.275Z,100
2024-03-04T04:53:02.282Z,100
2024-03-04T04:54:02.410Z,100
2024-03-04T04:55:02.328Z,100
2024-03-04T04:56:02.400Z,100
2024-03-04T04:57:02.198Z,100
2024-03-04T04:58:02.066Z,100
2024-03-04T04:59:01.816Z,100
2024-03-04T05:00:02.822Z,100
2024-03-04T05:01:01.833Z,100
2024-03-04T05:02:02.066Z,100
2024-03-04T05:03:02.016Z,100
2024-03-04T05:04:32.339Z,100
2024-03-04T05:05:01.757Z,100
2024-03-04T05:06:01.941Z,100
2024-03-04T05:07:01.717Z,100
2024-03-04T05:08:01.710Z,100
2024-03-04T05:09:01.649Z,100
2024-03-04T05:10:02.843Z,100
2024-03-04T05:11:01.642Z,100
2024-03-04T05:12:02.591Z,100
2024-03-04T05:13:02.428Z,100
2024-03-04T05:14:02.843Z,100
2024-03-04T05:15:01.521Z,100
2024-03-04T05:16:02.356Z,100
2024-03-04T05:18:02.401Z,100
2024-03-04T05:19:02.731Z,100
2024-03-04T05:20:01.558Z,100
2024-03-04T05:21:02.885Z,100
2024-03-04T05:22:01.654Z,100
2024-03-04T05:23:01.817Z,100
2024-03-04T05:24:01.647Z,100
2024-03-04T05:25:01.859Z,100
2024-03-04T05:26:01.600Z,100
2024-03-04T05:27:02.013Z,100
2024-03-04T05:28:01.775Z,100
2024-03-04T05:29:02.214Z,100
2024-03-04T05:30:01.882Z,100
2024-03-04T05:31:02.809Z,100
2024-03-04T05:33:02.297Z,100
2024-03-04T05:34:02.845Z,100
2024-03-04T05:35:01.826Z,100
2024-03-04T05:36:01.675Z,100
2024-03-04T05:37:01.570Z,100
2024-03-04T05:38:02.499Z,100
2024-03-04T05:39:02.396Z,100
2024-03-04T05:40:02.616Z,100
2024-03-04T05:41:02.365Z,100
2024-03-04T05:42:02.514Z,100
2024-03-04T05:43:02.312Z,100
2024-03-04T05:44:02.280Z,100
2024-03-04T05:45:02.052Z,100
2024-03-04T05:46:02.189Z,100
2024-03-04T05:47:02.661Z,100
2024-03-04T05:48:02.497Z,100
2024-03-04T05:49:02.676Z,100
2024-03-04T05:50:01.422Z,100
2024-03-04T05:51:02.870Z,100
2024-03-04T05:52:01.687Z,100
2024-03-04T05:53:01.836Z,100
2024-03-04T05:54:01.484Z,100
2024-03-04T05:55:01.642Z,100
2024-03-04T05:56:02.557Z,100
2024-03-04T05:57:02.460Z,100
2024-03-04T05:58:02.329Z,100
2024-03-04T05:59:02.189Z,100
2024-03-04T06:00:01.881Z,100
2024-03-04T06:01:02.592Z,100
2024-03-04T06:02:02.542Z,100
2024-03-04T06:03:01.648Z,100
2024-03-04T06:04:02.421Z,100
2024-03-04T06:05:02.108Z,100
2024-03-04T06:06:02.043Z,100
2024-03-04T06:07:01.903Z,100
2024-03-04T06:08:02.045Z,100
2024-03-04T06:09:01.807Z,100
2024-03-04T06:10:01.979Z,100
2024-03-04T06:11:01.974Z,100
2024-03-04T06:12:01.993Z,100
2024-03-04T06:13:02.187Z,100
2024-03-04T06:14:02.062Z,100
2024-03-04T06:15:01.916Z,100
2024-03-04T06:16:01.738Z,100
2024-03-04T06:17:01.988Z,100
2024-03-04T06:18:02.007Z,100
2024-03-04T06:19:02.213Z,100
2024-03-04T06:20:01.919Z,100
2024-03-04T06:21:02.336Z,100
2024-03-04T06:22:12.635Z,100
2024-03-04T06:23:01.757Z,100
2024-03-04T06:24:01.642Z,100
2024-03-04T06:25:01.826Z,100
2024-03-04T06:26:01.767Z,100
2024-03-04T06:27:01.541Z,100
2024-03-04T06:28:02.624Z,100
2024-03-04T06:29:02.440Z,100
2024-03-04T06:30:02.341Z,100
2024-03-04T06:31:02.210Z,100
2024-03-04T06:32:02.521Z,100
2024-03-04T06:33:02.359Z,100
2024-03-04T06:34:19.457Z,100
2024-03-04T06:35:03.005Z,100
2024-03-04T06:36:01.824Z,100
2024-03-04T06:37:02.283Z,100
2024-03-04T06:38:02.213Z,100
2024-03-04T06:39:02.050Z,100
2024-03-04T06:40:01.994Z,100
2024-03-04T06:41:01.913Z,100
2024-03-04T06:42:01.569Z,100
2024-03-04T06:43:01.665Z,100
2024-03-04T06:44:02.531Z,100
2024-03-04T06:45:02.447Z,100
2024-03-04T06:46:02.330Z,100
2024-03-04T06:48:02.209Z,100
2024-03-04T06:49:02.315Z,100
2024-03-04T06:50:02.081Z,100
2024-03-04T06:51:02.162Z,100
2024-03-04T06:52:01.943Z,100
2024-03-04T06:53:01.822Z,100
2024-03-04T06:54:01.469Z,100
2024-03-04T06:55:02.562Z,100
2024-03-04T06:56:02.443Z,100
2024-03-04T06:57:02.457Z,100
2024-03-04T06:58:02.227Z,100
2024-03-04T06:59:02.607Z,100
2024-03-04T07:00:03.239Z,100
2024-03-04T07:02:02.487Z,100
2024-03-04T07:04:02.286Z,100
2024-03-04T07:05:02.090Z,100
2024-03-04T07:06:01.862Z,100
2024-03-04T07:07:02.103Z,100
2024-03-04T07:08:01.959Z,100
2024-03-04T07:09:02.093Z,100
2024-03-04T07:10:02.069Z,100
2024-03-04T07:11:02.066Z,100
2024-03-04T07:12:01.874Z,100
2024-03-04T07:13:02.196Z,100
2024-03-04T07:14:02.514Z,100
2024-03-04T07:15:02.448Z,100
2024-03-04T07:16:02.393Z,100
2024-03-04T07:18:02.648Z,100
2024-03-04T07:19:01.664Z,100
2024-03-04T07:20:01.566Z,100
2024-03-04T07:21:04.183Z,100
2024-03-04T07:22:01.927Z,100
2024-03-04T07:23:02.014Z,100
2024-03-04T07:24:01.725Z,100
2024-03-04T07:25:01.868Z,100
2024-03-04T07:26:01.647Z,100
2024-03-04T07:27:01.731Z,100
2024-03-04T07:28:02.598Z,100
2024-03-04T07:29:02.407Z,100
2024-03-04T07:30:04.198Z,100
2024-03-04T07:31:02.096Z,100
2024-03-04T07:32:02.199Z,100
2024-03-04T07:33:02.361Z,100
2024-03-04T07:34:02.266Z,100
2024-03-04T07:35:02.441Z,100
2024-03-04T07:36:02.153Z,100
2024-03-04T07:37:02.667Z,100
2024-03-04T07:38:02.440Z,100
2024-03-04T07:39:02.309Z,100
2024-03-04T07:40:02.456Z,100
2024-03-04T07:41:02.599Z,100
2024-03-04T07:42:02.328Z,100
2024-03-04T07:43:02.019Z,100
2024-03-04T07:44:01.804Z,100
2024-03-04T07:45:01.807Z,100
2024-03-04T07:46:01.536Z,100
2024-03-04T07:47:02.200Z,100
2024-03-04T07:48:02.357Z,100
2024-03-04T07:49:02.977Z,100
2024-03-04T07:50:01.848Z,100
2024-03-04T07:51:02.821Z,100
2024-03-04T07:52:02.104Z,100
2024-03-04T07:53:01.949Z,100
2024-03-04T07:54:01.601Z,100
2024-03-04T07:55:02.310Z,100
2024-03-04T07:56:02.964Z,100
2024-03-04T07:57:17.764Z,100
2024-03-04T07:58:01.705Z,100
2024-03-04T07:59:02.097Z,100
2024-03-04T08:00:02.486Z,100
2024-03-04T08:01:02.321Z,100
2024-03-04T08:02:02.134Z,100
2024-03-04T08:03:02.248Z,100
2024-03-04T08:04:02.091Z,100
2024-03-04T08:05:02.291Z,100
2024-03-04T08:06:02.170Z,100
2024-03-04T08:07:02.443Z,100
2024-03-04T08:08:02.273Z,100
2024-03-04T08:09:02.367Z,100
2024-03-04T08:10:02.203Z,100
2024-03-04T08:11:02.628Z,100
2024-03-04T08:12:01.482Z,100
2024-03-04T08:13:01.738Z,100
2024-03-04T08:14:01.477Z,100
2024-03-04T08:15:02.504Z,100
2024-03-04T08:16:02.333Z,100
2024-03-04T08:18:01.794Z,100
2024-03-04T08:19:01.686Z,100
2024-03-04T08:20:01.596Z,100
2024-03-04T08:21:01.564Z,100
2024-03-04T08:22:02.568Z,100
2024-03-04T08:23:02.555Z,100
2024-03-04T08:24:02.736Z,100
2024-03-04T08:25:02.609Z,100
2024-03-04T08:26:01.559Z,100
2024-03-04T08:27:01.592Z,100
2024-03-04T08:28:02.818Z,100
2024-03-04T08:29:01.710Z,100
2024-03-04T08:30:02.572Z,100
2024-03-04T08:31:02.471Z,100
2024-03-04T08:33:02.639Z,100
2024-03-04T08:34:02.577Z,100
2024-03-04T08:35:02.546Z,100
2024-03-04T08:36:02.274Z,100
2024-03-04T08:37:03.006Z,100
2024-03-04T08:38:01.780Z,100
2024-03-04T08:39:02.038Z,100
2024-03-04T08:40:02.529Z,100
2024-03-04T08:41:02.222Z,100
2024-03-04T08:42:02.101Z,100
2024-03-04T08:43:01.972Z,100
2024-03-04T08:44:02.186Z,100
2024-03-04T08:45:02.316Z,100
2024-03-04T08:46:02.190Z,100
2024-03-04T08:48:02.483Z,100
2024-03-04T08:49:02.368Z,100
2024-03-04T08:50:02.347Z,100
2024-03-04T08:51:02.079Z,100
2024-03-04T08:52:01.909Z,100
2024-03-04T08:53:02.004Z,100
2024-03-04T08:54:01.753Z,100
2024-03-04T08:55:02.400Z,100
2024-03-04T08:56:02.373Z,100
2024-03-04T08:57:02.094Z,100
2024-03-04T08:58:02.099Z,100
2024-03-04T08:59:02.077Z,100
2024-03-04T09:00:02.225Z,100
2024-03-04T09:01:02.514Z,100
2024-03-04T09:02:02.616Z,100
2024-03-04T09:03:01.487Z,100
2024-03-04T09:04:02.409Z,100
2024-03-04T09:05:07.707Z,100
2024-03-04T09:06:01.838Z,100
2024-03-04T09:07:02.103Z,100
2024-03-04T09:08:01.805Z,100
2024-03-04T09:09:02.056Z,100
2024-03-04T09:10:02.057Z,100
2024-03-04T09:11:02.117Z,100
2024-03-04T09:12:02.360Z,100
2024-03-04T09:13:02.243Z,100
2024-03-04T09:14:02.373Z,100
2024-03-04T09:15:02.043Z,100
2024-03-04T09:16:02.176Z,100
2024-03-04T09:17:02.603Z,100
2024-03-04T09:18:02.526Z,100
2024-03-04T09:19:02.531Z,100
2024-03-04T09:20:02.233Z,100
2024-03-04T09:21:02.376Z,100
2024-03-04T09:22:02.078Z,100
2024-03-04T09:23:02.169Z,100
2024-03-04T09:24:01.960Z,100
2024-03-04T09:25:02.056Z,100
2024-03-04T09:26:02.403Z,100
2024-03-04T09:27:02.708Z,100
2024-03-04T09:28:02.490Z,100
2024-03-04T09:29:01.879Z,100
2024-03-04T09:30:01.568Z,100
2024-03-04T09:31:01.812Z,100
2024-03-04T09:32:01.957Z,100
2024-03-04T09:33:01.956Z,100
2024-03-04T09:34:02.231Z,100
2024-03-04T09:35:01.862Z,100
2024-03-04T09:36:02.071Z,100
2024-03-04T09:37:01.908Z,100
2024-03-04T09:38:01.968Z,100
2024-03-04T09:39:01.745Z,100
2024-03-04T09:40:02.775Z,100
2024-03-04T09:41:01.489Z,98
2024-03-04T09:42:02.754Z,97
2024-03-04T09:43:02.585Z,98
2024-03-04T09:44:02.462Z,99
2024-03-04T09:45:02.382Z,96
2024-03-04T09:46:02.242Z,95
2024-03-04T09:48:02.665Z,91
2024-03-04T09:49:02.446Z,88
2024-03-04T09:50:02.248Z,88
2024-03-04T09:51:02.138Z,88
2024-03-04T09:52:02.006Z,88
2024-03-04T09:53:01.860Z,85
2024-03-04T09:54:01.713Z,86
2024-03-04T09:55:03.472Z,81
2024-03-04T09:56:02.218Z,83
2024-03-04T09:57:02.427Z,79
2024-03-04T09:58:02.143Z,80
2024-03-04T09:59:02.267Z,76
2024-03-04T10:00:02.392Z,73
2024-03-04T10:01:02.361Z,76
2024-03-04T10:03:01.680Z,73
2024-03-04T10:04:02.609Z,73
2024-03-04T10:05:02.462Z,74
2024-03-04T10:06:02.392Z,71
2024-03-04T10:07:04.330Z,69
2024-03-04T10:08:02.050Z,71
2024-03-04T10:09:02.071Z,73
2024-03-04T10:10:02.016Z,69
2024-03-04T10:11:02.383Z,68
2024-03-04T10:12:01.721Z,70
2024-03-04T10:13:03.095Z,67
2024-03-04T10:14:01.845Z,66
2024-03-04T10:15:02.311Z,67
2024-03-04T10:16:02.039Z,68
2024-03-04T10:17:02.207Z,65
2024-03-04T10:18:02.222Z,65
2024-03-04T10:19:04.262Z,66
2024-03-04T10:20:01.493Z,67
2024-03-04T10:21:01.750Z,65
2024-03-04T10:22:02.977Z,66
2024-03-04T10:24:02.050Z,67
2024-03-04T10:25:03.385Z,64
2024-03-04T10:26:02.224Z,64
2024-03-04T10:27:02.415Z,64
2024-03-04T10:28:02.251Z,63
2024-03-04T10:29:03.120Z,63
2024-03-04T10:30:01.995Z,64
2024-03-04T10:31:03.254Z,65
2024-03-04T10:33:02.777Z,67
2024-03-04T10:34:01.588Z,66
2024-03-04T10:35:02.227Z,66
2024-03-04T10:36:01.876Z,65
2024-03-04T10:37:02.018Z,65
2024-03-04T10:38:01.688Z,64
2024-03-04T10:39:02.209Z,65
2024-03-04T10:40:02.128Z,67
2024-03-04T10:41:02.464Z,65
2024-03-04T10:42:02.319Z,63
2024-03-04T10:43:02.434Z,63
2024-03-04T10:44:02.773Z,64
2024-03-04T10:45:01.386Z,63
2024-03-04T10:46:02.176Z,64
2024-03-04T10:47:04.445Z,65
2024-03-04T10:48:02.177Z,63
2024-03-04T10:49:02.443Z,63
2024-03-04T10:50:02.291Z,62
2024-03-04T10:51:02.408Z,63
2024-03-04T10:52:14.454Z,63
2024-03-04T10:53:04.476Z,63
2024-03-04T10:54:01.660Z,63
2024-03-04T10:55:01.640Z,63
2024-03-04T10:56:02.154Z,64
2024-03-04T10:57:01.796Z,63
2024-03-04T10:58:04.546Z,61
2024-03-04T10:59:03.318Z,62
2024-03-04T11:00:03.118Z,61
2024-03-04T11:01:02.935Z,62
2024-03-04T11:03:02.218Z,62
2024-03-04T11:04:01.932Z,61
2024-03-04T11:05:03.244Z,61
2024-03-04T11:06:01.591Z,61
2024-03-04T11:07:02.084Z,60
2024-03-04T11:08:01.851Z,61
2024-03-04T11:09:02.282Z,61
2024-03-04T11:10:02.024Z,61
2024-03-04T11:11:04.496Z,61
2024-03-04T11:12:02.742Z,59
2024-03-04T11:13:02.451Z,59
2024-03-04T11:14:02.188Z,58
2024-03-04T11:15:02.659Z,58
2024-03-04T11:16:02.581Z,60
2024-03-04T11:18:02.736Z,58
2024-03-04T11:19:01.603Z,61
2024-03-04T11:20:03.063Z,59
2024-03-04T11:21:01.753Z,60
2024-03-04T11:22:02.593Z,60
2024-03-04T11:23:02.481Z,59
2024-03-04T11:24:02.544Z,59
2024-03-04T11:25:02.754Z,58
2024-03-04T11:26:01.976Z,59
2024-03-04T11:27:02.081Z,60
2024-03-04T11:28:01.902Z,59
2024-03-04T11:29:01.968Z,60
2024-03-04T11:30:01.679Z,61
2024-03-04T11:31:01.948Z,62
2024-03-04T11:32:01.949Z,63
2024-03-04T11:33:02.008Z,62
2024-03-04T11:34:04.222Z,66
2024-03-04T11:35:03.098Z,65
2024-03-04T11:36:02.000Z,64
2024-03-04T11:37:02.284Z,65
2024-03-04T11:38:01.980Z,64
2024-03-04T11:39:01.931Z,64
2024-03-04T11:40:01.866Z,64
2024-03-04T11:41:01.604Z,65
2024-03-04T11:42:02.372Z,64
2024-03-04T11:43:02.287Z,64
2024-03-04T11:44:02.002Z,67
2024-03-04T11:45:02.022Z,65
2024-03-04T11:46:01.934Z,66
2024-03-04T11:47:02.329Z,65
2024-03-04T11:48:02.352Z,68
2024-03-04T11:49:02.671Z,70
2024-03-04T11:50:02.393Z,69
2024-03-04T11:51:02.543Z,67
2024-03-04T11:52:02.451Z,66
2024-03-04T11:53:02.375Z,66
2024-03-04T11:54:02.022Z,66
2024-03-04T11:55:02.143Z,68
2024-03-04T11:56:01.949Z,65
2024-03-04T11:57:01.925Z,66
2024-03-04T11:58:02.682Z,66
2024-03-04T11:59:02.361Z,69
2024-03-04T12:00:02.361Z,64
2024-03-04T12:01:16.550Z,66
2024-03-04T12:03:01.806Z,71
2024-03-04T12:04:02.731Z,67
2024-03-04T12:05:02.698Z,68
2024-03-04T12:06:01.630Z,67
2024-03-04T12:07:01.580Z,67
2024-03-04T12:08:16.344Z,66
2024-03-04T12:09:16.963Z,68
2024-03-04T12:10:17.222Z,67
2024-03-04T12:11:02.364Z,67
2024-03-04T12:12:03.313Z,68
2024-03-04T12:13:02.125Z,68
2024-03-04T12:14:02.255Z,68
2024-03-04T12:15:01.973Z,68
2024-03-04T12:16:01.983Z,68
2024-03-04T12:17:01.855Z,70
2024-03-04T12:18:01.714Z,70
2024-03-04T12:19:01.829Z,69
2024-03-04T12:20:01.775Z,69
2024-03-04T12:21:01.600Z,68
2024-03-04T12:22:02.633Z,67
2024-03-04T12:23:02.454Z,67
2024-03-04T12:24:02.128Z,70
2024-03-04T12:25:02.952Z,70
2024-03-04T12:26:02.231Z,71
2024-03-04T12:27:03.002Z,71
2024-03-04T12:28:01.823Z,73
2024-03-04T12:29:01.759Z,73
2024-03-04T12:30:02.583Z,73
2024-03-04T12:31:02.526Z,72
2024-03-04T12:33:01.885Z,72
2024-03-04T12:34:01.672Z,72
2024-03-04T12:35:01.636Z,72
2024-03-04T12:36:02.321Z,73
2024-03-04T12:37:02.400Z,73
2024-03-04T12:38:02.101Z,73
2024-03-04T12:39:02.046Z,74
2024-03-04T12:40:02.244Z,74
2024-03-04T12:41:02.356Z,74
2024-03-04T12:42:02.034Z,73
2024-03-04T12:43:02.223Z,71
2024-03-04T12:44:02.065Z,69
2024-03-04T12:45:01.962Z,71
2024-03-04T12:46:02.149Z,70
2024-03-04T12:47:02.467Z,69
2024-03-04T12:48:02.336Z,72
2024-03-04T12:49:02.487Z,71
2024-03-04T12:50:02.308Z,70
2024-03-04T12:51:02.260Z,71
2024-03-04T12:52:02.024Z,70
2024-03-04T12:53:01.932Z,71
2024-03-04T12:54:01.730Z,69
2024-03-04T12:55:01.492Z,71
2024-03-04T12:56:02.190Z,73
2024-03-04T12:57:02.375Z,71
2024-03-04T12:58:02.070Z,71
2024-03-04T12:59:02.317Z,72
2024-03-04T13:00:02.059Z,72
2024-03-04T13:01:02.089Z,72
2024-03-04T13:03:01.800Z,73
2024-03-04T13:04:02.558Z,73
2024-03-04T13:05:02.487Z,72
2024-03-04T13:06:02.404Z,72
2024-03-04T13:07:02.456Z,72
2024-03-04T13:08:02.211Z,73
2024-03-04T13:09:02.374Z,73
2024-03-04T13:10:02.114Z,71
2024-03-04T13:11:02.396Z,75
2024-03-04T13:12:02.396Z,74
2024-03-04T13:13:02.445Z,74
2024-03-04T13:14:02.280Z,73
2024-03-04T13:15:02.309Z,74
2024-03-04T13:16:02.637Z,74
2024-03-04T13:18:02.349Z,72
2024-03-04T13:19:02.077Z,72
2024-03-04T13:20:02.610Z,74
2024-03-04T13:21:02.282Z,74
2024-03-04T13:22:02.956Z,75
2024-03-04T13:23:02.196Z,75
2024-03-04T13:24:01.935Z,76
2024-03-04T13:25:01.873Z,76
2024-03-04T13:26:01.956Z,77
2024-03-04T13:27:01.808Z,77
2024-03-04T13:28:02.346Z,78
2024-03-04T13:29:02.343Z,77
2024-03-04T13:30:02.119Z,78
2024-03-04T13:31:02.174Z,77
2024-03-04T13:32:03.380Z,75
2024-03-04T13:33:03.068Z,76
2024-03-04T13:34:02.044Z,77
2024-03-04T13:35:02.039Z,77
2024-03-04T13:36:01.924Z,78
2024-03-04T13:37:02.058Z,79
2024-03-04T13:38:01.834Z,81
2024-03-04T13:39:01.930Z,82
2024-03-04T13:40:01.663Z,83
2024-03-04T13:41:01.796Z,84
2024-03-04T13:42:01.526Z,86
2024-03-04T13:43:15.898Z,88
2024-03-04T13:44:02.634Z,91
2024-03-04T13:45:02.419Z,90
2024-03-04T13:46:02.206Z,90
2024-03-04T13:47:02.320Z,91
2024-03-04T13:48:03.406Z,87
2024-03-04T13:49:02.166Z,88
2024-03-04T13:50:02.131Z,88
2024-03-04T13:51:02.064Z,89
2024-03-04T13:52:01.991Z,91
2024-03-04T13:53:02.117Z,89
2024-03-04T13:54:01.862Z,88
2024-03-04T13:55:02.046Z,94
2024-03-04T13:56:02.453Z,91
2024-03-04T13:57:02.274Z,92
2024-03-04T13:58:02.081Z,87
2024-03-04T13:59:01.957Z,90
2024-03-04T14:00:02.570Z,93
2024-03-04T14:01:01.883Z,88
2024-03-04T14:02:02.645Z,87
2024-03-04T14:03:01.496Z,91
2024-03-04T14:04:02.800Z,92
2024-03-04T14:05:01.684Z,100
2024-03-04T14:06:01.809Z,100
2024-03-04T14:07:01.722Z,100
2024-03-04T14:08:02.854Z,100
2024-03-04T14:09:01.581Z,100
2024-03-04T14:10:02.555Z,100
2024-03-04T14:11:06.029Z,100
2024-03-04T14:12:01.990Z,100
2024-03-04T14:13:02.131Z,100
2024-03-04T14:14:01.978Z,100
2024-03-04T14:15:01.937Z,100
2024-03-04T14:16:02.322Z,100
2024-03-04T14:17:02.794Z,100
2024-03-04T14:18:01.764Z,100
2024-03-04T14:19:01.622Z,100
2024-03-04T14:20:02.568Z,100
2024-03-04T14:21:02.248Z,100
2024-03-04T14:22:02.197Z,98